sensor_id;sensor_type;location;lat;lon;timestamp;temperature;humidity
26103;DHT22;69760;49.380;8.998;2023-11-18T00:01:44;8.30;99.90
26103;DHT22;69760;49.380;8.998;2023-11-18T00:04:10;8.30;99.90
26103;DHT22;69760;49.380;8.998;2023-11-18T00:06:41;8.30;99.90
26103;DHT22;69760;49.380;8.998;2023-11-18T00:09:07;8.30;99.90
26103;DHT22;69760;49.380;8.998;2023-11-18T00:11:32;8.30;99.90
26103;DHT22;69760;49.380;8.998;2023-11-18T00:13:59;8.30;99.90
26103;DHT22;69760;49.380;8.998;2023-11-18T00:16:25;8.30;99.90
26103;DHT22;69760;49.380;8.998;2023-11-18T00:18:52;8.30;99.90
26103;DHT22;69760;49.380;8.998;2023-11-18T00:21:18;8.30;99.90
26103;DHT22;69760;49.380;8.998;2023-11-18T00:23:44;8.30;99.90
26103;DHT22;69760;49.380;8.998;2023-11-18T00:26:10;8.30;99.90
26103;DHT22;69760;49.380;8.998;2023-11-18T00:28:36;8.40;99.90
26103;DHT22;69760;49.380;8.998;2023-11-18T00:31:02;8.40;99.90
26103;DHT22;69760;49.380;8.998;2023-11-18T00:33:29;8.40;99.90
26103;DHT22;69760;49.380;8.998;2023-11-18T00:35:55;8.40;99.90
26103;DHT22;69760;49.380;8.998;2023-11-18T00:38:20;8.40;99.90
26103;DHT22;69760;49.380;8.998;2023-11-18T00:40:46;8.40;99.90
26103;DHT22;69760;49.380;8.998;2023-11-18T00:43:11;8.40;99.90
26103;DHT22;69760;49.380;8.998;2023-11-18T00:45:37;8.40;99.90
26103;DHT22;69760;49.380;8.998;2023-11-18T00:48:02;8.30;99.90
26103;DHT22;69760;49.380;8.998;2023-11-18T00:50:30;8.30;99.90
26103;DHT22;69760;49.380;8.998;2023-11-18T00:52:56;8.30;99.90
26103;DHT22;69760;49.380;8.998;2023-11-18T00:55:22;8.30;99.90
26103;DHT22;69760;49.380;8.998;2023-11-18T00:57:47;8.30;99.90
26103;DHT22;69760;49.380;8.998;2023-11-18T01:00:14;8.30;99.90
26103;DHT22;69760;49.380;8.998;2023-11-18T01:02:42;8.30;99.90
26103;DHT22;69760;49.380;8.998;2023-11-18T01:05:08;8.30;99.90
26103;DHT22;69760;49.380;8.998;2023-11-18T01:07:34;8.30;99.90
26103;DHT22;69760;49.380;8.998;2023-11-18T01:10:01;8.30;99.90
26103;DHT22;69760;49.380;8.998;2023-11-18T01:12:27;8.30;99.90
26103;DHT22;69760;49.380;8.998;2023-11-18T01:14:52;8.30;99.90
26103;DHT22;69760;49.380;8.998;2023-11-18T01:17:18;8.30;99.90
26103;DHT22;69760;49.380;8.998;2023-11-18T01:19:43;8.30;99.90
26103;DHT22;69760;49.380;8.998;2023-11-18T01:22:09;8.30;99.90
26103;DHT22;69760;49.380;8.998;2023-11-18T01:24:36;8.30;99.90
26103;DHT22;69760;49.380;8.998;2023-11-18T01:27:02;8.30;99.90
26103;DHT22;69760;49.380;8.998;2023-11-18T01:29:27;8.30;99.90
26103;DHT22;69760;49.380;8.998;2023-11-18T01:31:53;8.30;99.90
26103;DHT22;69760;49.380;8.998;2023-11-18T01:34:20;8.30;99.90
26103;DHT22;69760;49.380;8.998;2023-11-18T01:36:47;8.30;99.90
26103;DHT22;69760;49.380;8.998;2023-11-18T01:39:15;8.20;99.90
26103;DHT22;69760;49.380;8.998;2023-11-18T01:41:40;8.20;99.90
26103;DHT22;69760;49.380;8.998;2023-11-18T01:44:06;8.20;99.90
26103;DHT22;69760;49.380;8.998;2023-11-18T01:46:33;8.20;99.90
26103;DHT22;69760;49.380;8.998;2023-11-18T01:49:02;8.20;99.90
26103;DHT22;69760;49.380;8.998;2023-11-18T01:51:29;8.20;99.90
26103;DHT22;69760;49.380;8.998;2023-11-18T01:53:56;8.30;99.90
26103;DHT22;69760;49.380;8.998;2023-11-18T01:56:26;8.30;99.90
26103;DHT22;69760;49.380;8.998;2023-11-18T01:58:53;8.30;99.90
26103;DHT22;69760;49.380;8.998;2023-11-18T02:01:19;8.20;99.90
26103;DHT22;69760;49.380;8.998;2023-11-18T02:03:44;8.20;99.90
26103;DHT22;69760;49.380;8.998;2023-11-18T02:06:10;8.20;99.90
26103;DHT22;69760;49.380;8.998;2023-11-18T02:08:37;8.20;99.90
26103;DHT22;69760;49.380;8.998;2023-11-18T02:11:15;8.20;99.90
26103;DHT22;69760;49.380;8.998;2023-11-18T02:13:44;8.20;99.90
26103;DHT22;69760;49.380;8.998;2023-11-18T02:16:14;8.20;99.90
26103;DHT22;69760;49.380;8.998;2023-11-18T02:18:42;8.20;99.90
26103;DHT22;69760;49.380;8.998;2023-11-18T02:21:10;8.10;99.90
26103;DHT22;69760;49.380;8.998;2023-11-18T02:23:37;8.10;99.90
26103;DHT22;69760;49.380;8.998;2023-11-18T02:26:03;8.10;99.90
26103;DHT22;69760;49.380;8.998;2023-11-18T02:28:28;8.10;99.90
26103;DHT22;69760;49.380;8.998;2023-11-18T02:30:58;8.10;99.90
26103;DHT22;69760;49.380;8.998;2023-11-18T02:33:35;8.10;99.90
26103;DHT22;69760;49.380;8.998;2023-11-18T02:36:10;8.10;99.90
26103;DHT22;69760;49.380;8.998;2023-11-18T02:38:44;8.10;99.90
26103;DHT22;69760;49.380;8.998;2023-11-18T02:41:13;8.10;99.90
26103;DHT22;69760;49.380;8.998;2023-11-18T02:43:40;8.10;99.90
26103;DHT22;69760;49.380;8.998;2023-11-18T02:46:07;8.00;99.90
26103;DHT22;69760;49.380;8.998;2023-11-18T02:48:34;8.00;99.90
26103;DHT22;69760;49.380;8.998;2023-11-18T02:51:01;8.00;99.90
26103;DHT22;69760;49.380;8.998;2023-11-18T02:53:27;8.00;99.90
26103;DHT22;69760;49.380;8.998;2023-11-18T02:55:53;7.90;99.90
26103;DHT22;69760;49.380;8.998;2023-11-18T02:58:19;7.90;99.90
26103;DHT22;69760;49.380;8.998;2023-11-18T03:00:45;7.90;99.90
26103;DHT22;69760;49.380;8.998;2023-11-18T03:03:11;7.80;99.90
26103;DHT22;69760;49.380;8.998;2023-11-18T03:05:37;7.80;99.90
26103;DHT22;69760;49.380;8.998;2023-11-18T03:08:03;7.80;99.90
26103;DHT22;69760;49.380;8.998;2023-11-18T03:10:32;7.70;99.90
26103;DHT22;69760;49.380;8.998;2023-11-18T03:13:00;7.70;99.90
26103;DHT22;69760;49.380;8.998;2023-11-18T03:15:26;7.70;99.90
26103;DHT22;69760;49.380;8.998;2023-11-18T03:17:52;7.60;99.90
26103;DHT22;69760;49.380;8.998;2023-11-18T03:20:19;7.60;99.90
26103;DHT22;69760;49.380;8.998;2023-11-18T03:22:45;7.60;99.90
26103;DHT22;69760;49.380;8.998;2023-11-18T03:25:12;7.60;99.90
26103;DHT22;69760;49.380;8.998;2023-11-18T03:27:38;7.60;99.90
26103;DHT22;69760;49.380;8.998;2023-11-18T03:30:05;7.60;99.90
26103;DHT22;69760;49.380;8.998;2023-11-18T03:32:32;7.50;99.90
26103;DHT22;69760;49.380;8.998;2023-11-18T03:34:57;7.50;99.90
26103;DHT22;69760;49.380;8.998;2023-11-18T03:37:24;7.40;99.90
26103;DHT22;69760;49.380;8.998;2023-11-18T03:39:52;7.30;99.90
26103;DHT22;69760;49.380;8.998;2023-11-18T03:42:17;7.30;99.90
26103;DHT22;69760;49.380;8.998;2023-11-18T03:44:43;7.30;99.90
26103;DHT22;69760;49.380;8.998;2023-11-18T03:47:15;7.30;99.90
26103;DHT22;69760;49.380;8.998;2023-11-18T03:49:41;7.30;99.90
26103;DHT22;69760;49.380;8.998;2023-11-18T03:52:07;7.30;99.90
26103;DHT22;69760;49.380;8.998;2023-11-18T03:54:33;7.30;99.90
26103;DHT22;69760;49.380;8.998;2023-11-18T03:56:58;7.30;99.90
26103;DHT22;69760;49.380;8.998;2023-11-18T03:59:25;7.20;99.90
26103;DHT22;69760;49.380;8.998;2023-11-18T04:01:50;7.20;99.90
26103;DHT22;69760;49.380;8.998;2023-11-18T04:04:17;7.20;99.90
26103;DHT22;69760;49.380;8.998;2023-11-18T04:06:43;7.20;99.90
26103;DHT22;69760;49.380;8.998;2023-11-18T04:09:08;7.20;99.90
26103;DHT22;69760;49.380;8.998;2023-11-18T04:11:35;7.20;99.90
26103;DHT22;69760;49.380;8.998;2023-11-18T04:14:01;7.20;99.90
26103;DHT22;69760;49.380;8.998;2023-11-18T04:16:29;7.30;99.90
26103;DHT22;69760;49.380;8.998;2023-11-18T04:18:54;7.30;99.90
26103;DHT22;69760;49.380;8.998;2023-11-18T04:21:21;7.30;99.90
26103;DHT22;69760;49.380;8.998;2023-11-18T04:23:46;7.30;99.90
26103;DHT22;69760;49.380;8.998;2023-11-18T04:26:12;7.30;99.90
26103;DHT22;69760;49.380;8.998;2023-11-18T04:28:38;7.30;99.90
26103;DHT22;69760;49.380;8.998;2023-11-18T04:31:04;7.30;99.90
26103;DHT22;69760;49.380;8.998;2023-11-18T04:33:30;7.40;99.90
26103;DHT22;69760;49.380;8.998;2023-11-18T04:35:56;7.40;99.90
26103;DHT22;69760;49.380;8.998;2023-11-18T04:38:26;7.40;99.90
26103;DHT22;69760;49.380;8.998;2023-11-18T04:40:52;7.40;99.90
26103;DHT22;69760;49.380;8.998;2023-11-18T04:43:19;7.30;99.90
26103;DHT22;69760;49.380;8.998;2023-11-18T04:45:46;7.30;99.90
26103;DHT22;69760;49.380;8.998;2023-11-18T04:48:11;7.40;99.90
26103;DHT22;69760;49.380;8.998;2023-11-18T04:50:39;7.40;99.90
26103;DHT22;69760;49.380;8.998;2023-11-18T04:53:05;7.40;99.90
26103;DHT22;69760;49.380;8.998;2023-11-18T04:55:34;7.40;99.90
26103;DHT22;69760;49.380;8.998;2023-11-18T04:58:00;7.40;99.90
26103;DHT22;69760;49.380;8.998;2023-11-18T05:00:26;7.50;99.90
26103;DHT22;69760;49.380;8.998;2023-11-18T05:02:53;7.50;99.90
26103;DHT22;69760;49.380;8.998;2023-11-18T05:05:19;7.50;99.90
26103;DHT22;69760;49.380;8.998;2023-11-18T05:07:44;7.50;99.90
26103;DHT22;69760;49.380;8.998;2023-11-18T05:10:10;7.60;99.90
26103;DHT22;69760;49.380;8.998;2023-11-18T05:12:37;7.60;99.90
26103;DHT22;69760;49.380;8.998;2023-11-18T05:15:04;7.60;99.90
26103;DHT22;69760;49.380;8.998;2023-11-18T05:17:30;7.60;99.90
26103;DHT22;69760;49.380;8.998;2023-11-18T05:19:55;7.60;99.90
26103;DHT22;69760;49.380;8.998;2023-11-18T05:22:21;7.60;99.90
26103;DHT22;69760;49.380;8.998;2023-11-18T05:24:47;7.60;99.90
26103;DHT22;69760;49.380;8.998;2023-11-18T05:27:14;7.60;99.90
26103;DHT22;69760;49.380;8.998;2023-11-18T05:29:39;7.60;99.90
26103;DHT22;69760;49.380;8.998;2023-11-18T05:32:07;7.60;99.90
26103;DHT22;69760;49.380;8.998;2023-11-18T05:34:33;7.60;99.90
26103;DHT22;69760;49.380;8.998;2023-11-18T05:37:00;7.60;99.90
26103;DHT22;69760;49.380;8.998;2023-11-18T05:39:26;7.60;99.90
26103;DHT22;69760;49.380;8.998;2023-11-18T05:41:54;7.60;99.90
26103;DHT22;69760;49.380;8.998;2023-11-18T05:44:21;7.60;99.90
26103;DHT22;69760;49.380;8.998;2023-11-18T05:46:56;7.60;99.90
26103;DHT22;69760;49.380;8.998;2023-11-18T05:49:22;7.60;99.90
26103;DHT22;69760;49.380;8.998;2023-11-18T05:51:49;7.60;99.90
26103;DHT22;69760;49.380;8.998;2023-11-18T05:54:15;7.70;99.90
26103;DHT22;69760;49.380;8.998;2023-11-18T05:56:40;7.60;99.90
26103;DHT22;69760;49.380;8.998;2023-11-18T05:59:06;7.50;99.90
26103;DHT22;69760;49.380;8.998;2023-11-18T06:01:33;7.50;99.90
26103;DHT22;69760;49.380;8.998;2023-11-18T06:04:00;7.50;99.90
26103;DHT22;69760;49.380;8.998;2023-11-18T06:06:26;7.40;99.90
26103;DHT22;69760;49.380;8.998;2023-11-18T06:08:52;7.40;99.90
26103;DHT22;69760;49.380;8.998;2023-11-18T06:11:18;7.40;99.90
26103;DHT22;69760;49.380;8.998;2023-11-18T06:13:51;7.30;99.90
26103;DHT22;69760;49.380;8.998;2023-11-18T06:16:19;7.40;99.90
26103;DHT22;69760;49.380;8.998;2023-11-18T06:18:49;7.30;99.90
26103;DHT22;69760;49.380;8.998;2023-11-18T06:21:16;7.40;99.90
26103;DHT22;69760;49.380;8.998;2023-11-18T06:23:44;7.40;99.90
26103;DHT22;69760;49.380;8.998;2023-11-18T06:26:11;7.40;99.90
26103;DHT22;69760;49.380;8.998;2023-11-18T06:28:45;7.50;99.90
26103;DHT22;69760;49.380;8.998;2023-11-18T06:31:11;7.50;99.90
26103;DHT22;69760;49.380;8.998;2023-11-18T06:33:44;7.50;99.90
26103;DHT22;69760;49.380;8.998;2023-11-18T06:38:40;7.60;99.90
26103;DHT22;69760;49.380;8.998;2023-11-18T06:41:09;7.70;99.90
26103;DHT22;69760;49.380;8.998;2023-11-18T06:43:38;7.70;99.90
26103;DHT22;69760;49.380;8.998;2023-11-18T06:46:32;7.70;99.90
26103;DHT22;69760;49.380;8.998;2023-11-18T06:48:59;7.70;99.90
26103;DHT22;69760;49.380;8.998;2023-11-18T06:51:29;7.70;99.90
26103;DHT22;69760;49.380;8.998;2023-11-18T06:53:56;7.70;99.90
26103;DHT22;69760;49.380;8.998;2023-11-18T06:56:23;7.70;99.90
26103;DHT22;69760;49.380;8.998;2023-11-18T06:58:48;7.70;99.90
26103;DHT22;69760;49.380;8.998;2023-11-18T07:01:14;7.70;99.90
26103;DHT22;69760;49.380;8.998;2023-11-18T07:03:44;7.70;99.90
26103;DHT22;69760;49.380;8.998;2023-11-18T07:06:10;7.80;99.90
26103;DHT22;69760;49.380;8.998;2023-11-18T07:08:36;7.80;99.90
26103;DHT22;69760;49.380;8.998;2023-11-18T07:11:02;7.80;99.90
26103;DHT22;69760;49.380;8.998;2023-11-18T07:13:28;7.80;99.90
26103;DHT22;69760;49.380;8.998;2023-11-18T07:15:54;7.80;99.90
26103;DHT22;69760;49.380;8.998;2023-11-18T07:18:22;7.90;99.90
26103;DHT22;69760;49.380;8.998;2023-11-18T07:20:50;7.90;99.90
26103;DHT22;69760;49.380;8.998;2023-11-18T07:23:18;7.90;99.90
26103;DHT22;69760;49.380;8.998;2023-11-18T07:25:44;7.90;99.90
26103;DHT22;69760;49.380;8.998;2023-11-18T07:28:11;7.90;99.90
26103;DHT22;69760;49.380;8.998;2023-11-18T07:30:36;7.90;99.90
26103;DHT22;69760;49.380;8.998;2023-11-18T07:33:03;7.90;99.90
26103;DHT22;69760;49.380;8.998;2023-11-18T07:35:29;7.90;99.90
26103;DHT22;69760;49.380;8.998;2023-11-18T07:37:55;7.90;99.90
26103;DHT22;69760;49.380;8.998;2023-11-18T07:40:22;7.90;99.90
26103;DHT22;69760;49.380;8.998;2023-11-18T07:42:54;8.00;99.90
26103;DHT22;69760;49.380;8.998;2023-11-18T07:45:21;8.00;99.90
26103;DHT22;69760;49.380;8.998;2023-11-18T07:47:51;7.90;99.90
26103;DHT22;69760;49.380;8.998;2023-11-18T07:50:20;7.90;99.90
26103;DHT22;69760;49.380;8.998;2023-11-18T07:52:47;7.90;99.90
26103;DHT22;69760;49.380;8.998;2023-11-18T07:55:14;7.80;99.90
26103;DHT22;69760;49.380;8.998;2023-11-18T07:57:40;7.80;99.90
26103;DHT22;69760;49.380;8.998;2023-11-18T08:00:06;7.80;99.90
26103;DHT22;69760;49.380;8.998;2023-11-18T08:02:36;7.80;99.90
26103;DHT22;69760;49.380;8.998;2023-11-18T08:05:02;7.90;99.90
26103;DHT22;69760;49.380;8.998;2023-11-18T08:07:29;7.90;99.90
26103;DHT22;69760;49.380;8.998;2023-11-18T08:09:54;8.00;99.90
26103;DHT22;69760;49.380;8.998;2023-11-18T08:12:20;8.10;99.90
26103;DHT22;69760;49.380;8.998;2023-11-18T08:14:46;8.10;99.90
26103;DHT22;69760;49.380;8.998;2023-11-18T08:17:12;8.10;99.90
26103;DHT22;69760;49.380;8.998;2023-11-18T08:19:39;8.10;99.90
26103;DHT22;69760;49.380;8.998;2023-11-18T08:22:04;8.20;99.90
26103;DHT22;69760;49.380;8.998;2023-11-18T08:24:31;8.20;99.90
26103;DHT22;69760;49.380;8.998;2023-11-18T08:26:58;8.20;99.90
26103;DHT22;69760;49.380;8.998;2023-11-18T08:29:24;8.20;99.90
26103;DHT22;69760;49.380;8.998;2023-11-18T08:31:53;8.20;99.90
26103;DHT22;69760;49.380;8.998;2023-11-18T08:34:19;8.10;99.90
26103;DHT22;69760;49.380;8.998;2023-11-18T08:36:44;8.20;99.90
26103;DHT22;69760;49.380;8.998;2023-11-18T08:39:10;8.10;99.90
26103;DHT22;69760;49.380;8.998;2023-11-18T08:41:36;8.10;99.90
26103;DHT22;69760;49.380;8.998;2023-11-18T08:44:01;8.00;99.90
26103;DHT22;69760;49.380;8.998;2023-11-18T08:46:27;7.90;99.90
26103;DHT22;69760;49.380;8.998;2023-11-18T08:48:53;7.90;99.90
26103;DHT22;69760;49.380;8.998;2023-11-18T08:51:21;7.90;99.90
26103;DHT22;69760;49.380;8.998;2023-11-18T08:53:46;7.90;99.90
26103;DHT22;69760;49.380;8.998;2023-11-18T08:56:13;7.90;99.90
26103;DHT22;69760;49.380;8.998;2023-11-18T08:58:42;7.90;99.90
26103;DHT22;69760;49.380;8.998;2023-11-18T09:01:10;8.00;99.90
26103;DHT22;69760;49.380;8.998;2023-11-18T09:03:42;7.90;99.90
26103;DHT22;69760;49.380;8.998;2023-11-18T09:06:17;8.00;99.90
26103;DHT22;69760;49.380;8.998;2023-11-18T09:08:48;8.10;99.90
26103;DHT22;69760;49.380;8.998;2023-11-18T09:11:19;8.20;99.90
26103;DHT22;69760;49.380;8.998;2023-11-18T09:13:47;8.30;99.90
26103;DHT22;69760;49.380;8.998;2023-11-18T09:16:15;8.30;99.90
26103;DHT22;69760;49.380;8.998;2023-11-18T09:21:12;8.60;99.90
26103;DHT22;69760;49.380;8.998;2023-11-18T09:23:41;8.70;99.90
26103;DHT22;69760;49.380;8.998;2023-11-18T09:26:08;8.80;99.90
26103;DHT22;69760;49.380;8.998;2023-11-18T09:28:36;8.80;99.90
26103;DHT22;69760;49.380;8.998;2023-11-18T09:31:02;8.80;99.90
26103;DHT22;69760;49.380;8.998;2023-11-18T09:33:32;8.90;99.90
26103;DHT22;69760;49.380;8.998;2023-11-18T09:35:59;8.90;99.90
26103;DHT22;69760;49.380;8.998;2023-11-18T09:38:30;8.90;99.90
26103;DHT22;69760;49.380;8.998;2023-11-18T09:40:57;9.10;99.90
26103;DHT22;69760;49.380;8.998;2023-11-18T09:43:24;9.10;99.90
26103;DHT22;69760;49.380;8.998;2023-11-18T09:46:07;9.10;99.90
26103;DHT22;69760;49.380;8.998;2023-11-18T09:48:43;9.10;99.90
26103;DHT22;69760;49.380;8.998;2023-11-18T09:51:23;9.20;99.90
26103;DHT22;69760;49.380;8.998;2023-11-18T09:53:54;9.20;99.90
26103;DHT22;69760;49.380;8.998;2023-11-18T10:01:42;9.40;99.90
26103;DHT22;69760;49.380;8.998;2023-11-18T10:04:09;9.50;99.90
26103;DHT22;69760;49.380;8.998;2023-11-18T10:06:36;9.50;99.90
26103;DHT22;69760;49.380;8.998;2023-11-18T10:09:06;9.60;99.90
26103;DHT22;69760;49.380;8.998;2023-11-18T10:11:43;9.60;99.90
26103;DHT22;69760;49.380;8.998;2023-11-18T10:14:08;9.70;99.90
26103;DHT22;69760;49.380;8.998;2023-11-18T10:16:35;9.70;99.90
26103;DHT22;69760;49.380;8.998;2023-11-18T10:19:03;9.70;99.90
26103;DHT22;69760;49.380;8.998;2023-11-18T10:21:37;9.70;99.90
26103;DHT22;69760;49.380;8.998;2023-11-18T10:24:08;9.80;99.90
26103;DHT22;69760;49.380;8.998;2023-11-18T10:26:40;9.80;99.90
26103;DHT22;69760;49.380;8.998;2023-11-18T10:29:06;9.80;99.90
26103;DHT22;69760;49.380;8.998;2023-11-18T10:31:34;9.80;99.90
26103;DHT22;69760;49.380;8.998;2023-11-18T10:34:13;9.90;99.90
26103;DHT22;69760;49.380;8.998;2023-11-18T10:36:41;10.00;99.90
26103;DHT22;69760;49.380;8.998;2023-11-18T10:39:31;10.00;99.90
26103;DHT22;69760;49.380;8.998;2023-11-18T10:42:00;10.10;99.90
26103;DHT22;69760;49.380;8.998;2023-11-18T10:44:26;10.10;99.90
26103;DHT22;69760;49.380;8.998;2023-11-18T10:46:52;10.10;99.90
26103;DHT22;69760;49.380;8.998;2023-11-18T10:49:19;10.10;99.90
26103;DHT22;69760;49.380;8.998;2023-11-18T10:51:46;10.10;99.90
26103;DHT22;69760;49.380;8.998;2023-11-18T10:54:13;10.20;99.90
26103;DHT22;69760;49.380;8.998;2023-11-18T10:56:49;10.20;99.90
26103;DHT22;69760;49.380;8.998;2023-11-18T10:59:15;10.20;99.90
26103;DHT22;69760;49.380;8.998;2023-11-18T11:01:44;10.30;99.90
26103;DHT22;69760;49.380;8.998;2023-11-18T11:04:13;10.30;99.90
26103;DHT22;69760;49.380;8.998;2023-11-18T11:06:43;10.30;99.90
26103;DHT22;69760;49.380;8.998;2023-11-18T11:09:20;10.30;99.90
26103;DHT22;69760;49.380;8.998;2023-11-18T11:11:56;10.40;99.90
26103;DHT22;69760;49.380;8.998;2023-11-18T11:14:27;10.40;99.90
26103;DHT22;69760;49.380;8.998;2023-11-18T11:17:03;10.40;99.90
26103;DHT22;69760;49.380;8.998;2023-11-18T11:22:17;10.50;99.90
26103;DHT22;69760;49.380;8.998;2023-11-18T11:24:59;10.50;99.90
26103;DHT22;69760;49.380;8.998;2023-11-18T11:27:33;10.50;99.90
26103;DHT22;69760;49.380;8.998;2023-11-18T11:30:22;10.50;99.90
26103;DHT22;69760;49.380;8.998;2023-11-18T11:35:48;10.50;99.90
26103;DHT22;69760;49.380;8.998;2023-11-18T11:38:18;10.60;99.90
26103;DHT22;69760;49.380;8.998;2023-11-18T11:40:45;10.60;99.90
26103;DHT22;69760;49.380;8.998;2023-11-18T11:43:12;10.50;99.90
26103;DHT22;69760;49.380;8.998;2023-11-18T11:45:41;10.50;99.90
26103;DHT22;69760;49.380;8.998;2023-11-18T11:48:09;10.40;99.90
26103;DHT22;69760;49.380;8.998;2023-11-18T11:53:21;10.30;99.90
26103;DHT22;69760;49.380;8.998;2023-11-18T11:55:50;10.30;99.90
26103;DHT22;69760;49.380;8.998;2023-11-18T11:58:30;10.20;99.90
26103;DHT22;69760;49.380;8.998;2023-11-18T12:01:24;10.20;99.90
26103;DHT22;69760;49.380;8.998;2023-11-18T12:03:52;10.20;99.90
26103;DHT22;69760;49.380;8.998;2023-11-18T12:06:26;10.20;99.90
26103;DHT22;69760;49.380;8.998;2023-11-18T12:08:56;10.30;99.90
26103;DHT22;69760;49.380;8.998;2023-11-18T12:11:22;10.20;99.90
26103;DHT22;69760;49.380;8.998;2023-11-18T12:14:20;10.20;99.90
26103;DHT22;69760;49.380;8.998;2023-11-18T12:17:02;10.20;99.90
26103;DHT22;69760;49.380;8.998;2023-11-18T12:19:43;10.20;99.90
26103;DHT22;69760;49.380;8.998;2023-11-18T12:22:19;10.20;99.90
26103;DHT22;69760;49.380;8.998;2023-11-18T12:30:37;10.30;99.90
26103;DHT22;69760;49.380;8.998;2023-11-18T12:33:05;10.30;99.90
26103;DHT22;69760;49.380;8.998;2023-11-18T12:35:40;10.30;99.90
26103;DHT22;69760;49.380;8.998;2023-11-18T12:40:57;10.20;99.90
26103;DHT22;69760;49.380;8.998;2023-11-18T12:46:52;10.20;99.90
26103;DHT22;69760;49.380;8.998;2023-11-18T12:49:19;10.20;99.90
26103;DHT22;69760;49.380;8.998;2023-11-18T12:51:49;10.10;99.90
26103;DHT22;69760;49.380;8.998;2023-11-18T12:54:15;10.10;99.90
26103;DHT22;69760;49.380;8.998;2023-11-18T12:56:42;10.10;99.90
26103;DHT22;69760;49.380;8.998;2023-11-18T12:59:10;10.10;99.90
26103;DHT22;69760;49.380;8.998;2023-11-18T13:01:38;10.10;99.90
26103;DHT22;69760;49.380;8.998;2023-11-18T13:04:07;10.00;99.90
26103;DHT22;69760;49.380;8.998;2023-11-18T13:06:34;10.00;99.90
26103;DHT22;69760;49.380;8.998;2023-11-18T13:09:00;10.00;99.90
26103;DHT22;69760;49.380;8.998;2023-11-18T13:11:31;10.00;99.90
26103;DHT22;69760;49.380;8.998;2023-11-18T13:13:59;10.00;99.90
26103;DHT22;69760;49.380;8.998;2023-11-18T13:16:25;9.90;99.90
26103;DHT22;69760;49.380;8.998;2023-11-18T13:18:51;9.90;99.90
26103;DHT22;69760;49.380;8.998;2023-11-18T13:21:18;9.90;99.90
26103;DHT22;69760;49.380;8.998;2023-11-18T13:23:52;9.80;99.90
26103;DHT22;69760;49.380;8.998;2023-11-18T13:26:19;9.80;99.90
26103;DHT22;69760;49.380;8.998;2023-11-18T13:28:46;9.80;99.90
26103;DHT22;69760;49.380;8.998;2023-11-18T13:31:12;9.80;99.90
26103;DHT22;69760;49.380;8.998;2023-11-18T13:33:42;9.70;99.90
26103;DHT22;69760;49.380;8.998;2023-11-18T13:36:09;9.70;99.90
26103;DHT22;69760;49.380;8.998;2023-11-18T13:38:38;9.80;99.90
26103;DHT22;69760;49.380;8.998;2023-11-18T13:41:04;9.70;99.90
26103;DHT22;69760;49.380;8.998;2023-11-18T13:43:42;9.70;99.90
26103;DHT22;69760;49.380;8.998;2023-11-18T13:46:11;9.60;99.90
26103;DHT22;69760;49.380;8.998;2023-11-18T13:48:38;9.50;99.90
26103;DHT22;69760;49.380;8.998;2023-11-18T13:51:12;9.50;99.90
26103;DHT22;69760;49.380;8.998;2023-11-18T13:53:39;9.50;99.90
26103;DHT22;69760;49.380;8.998;2023-11-18T13:56:10;9.60;99.90
26103;DHT22;69760;49.380;8.998;2023-11-18T13:58:36;9.60;99.90
26103;DHT22;69760;49.380;8.998;2023-11-18T14:01:09;9.60;99.90
26103;DHT22;69760;49.380;8.998;2023-11-18T14:03:36;9.60;99.90
26103;DHT22;69760;49.380;8.998;2023-11-18T14:06:09;9.60;99.90
26103;DHT22;69760;49.380;8.998;2023-11-18T14:08:38;9.60;99.90
26103;DHT22;69760;49.380;8.998;2023-11-18T14:11:05;9.50;99.90
26103;DHT22;69760;49.380;8.998;2023-11-18T14:13:32;9.50;99.90
26103;DHT22;69760;49.380;8.998;2023-11-18T14:16:00;9.50;99.90
26103;DHT22;69760;49.380;8.998;2023-11-18T14:18:26;9.50;99.90
26103;DHT22;69760;49.380;8.998;2023-11-18T14:20:52;9.50;99.90
26103;DHT22;69760;49.380;8.998;2023-11-18T14:23:18;9.50;99.90
26103;DHT22;69760;49.380;8.998;2023-11-18T14:25:44;9.40;99.90
26103;DHT22;69760;49.380;8.998;2023-11-18T14:28:13;9.40;99.90
26103;DHT22;69760;49.380;8.998;2023-11-18T14:30:39;9.30;99.90
26103;DHT22;69760;49.380;8.998;2023-11-18T14:33:05;9.20;99.90
26103;DHT22;69760;49.380;8.998;2023-11-18T14:35:32;9.20;99.90
26103;DHT22;69760;49.380;8.998;2023-11-18T14:37:58;9.10;99.90
26103;DHT22;69760;49.380;8.998;2023-11-18T14:40:23;9.00;99.90
26103;DHT22;69760;49.380;8.998;2023-11-18T14:42:49;9.00;99.90
26103;DHT22;69760;49.380;8.998;2023-11-18T14:45:16;9.00;99.90
26103;DHT22;69760;49.380;8.998;2023-11-18T14:47:42;8.90;99.90
26103;DHT22;69760;49.380;8.998;2023-11-18T14:50:19;9.00;99.90
26103;DHT22;69760;49.380;8.998;2023-11-18T14:52:46;9.00;99.90
26103;DHT22;69760;49.380;8.998;2023-11-18T14:55:12;9.00;99.90
26103;DHT22;69760;49.380;8.998;2023-11-18T14:57:39;9.00;99.90
26103;DHT22;69760;49.380;8.998;2023-11-18T15:00:06;9.00;99.90
26103;DHT22;69760;49.380;8.998;2023-11-18T15:02:36;9.00;99.90
26103;DHT22;69760;49.380;8.998;2023-11-18T15:05:02;9.00;99.90
26103;DHT22;69760;49.380;8.998;2023-11-18T15:07:31;9.10;99.90
26103;DHT22;69760;49.380;8.998;2023-11-18T15:09:57;9.10;99.90
26103;DHT22;69760;49.380;8.998;2023-11-18T15:12:23;9.20;99.90
26103;DHT22;69760;49.380;8.998;2023-11-18T15:14:48;9.20;99.90
26103;DHT22;69760;49.380;8.998;2023-11-18T15:17:14;9.30;99.90
26103;DHT22;69760;49.380;8.998;2023-11-18T15:19:40;9.40;99.90
26103;DHT22;69760;49.380;8.998;2023-11-18T15:22:05;9.40;99.90
26103;DHT22;69760;49.380;8.998;2023-11-18T15:24:31;9.40;99.90
26103;DHT22;69760;49.380;8.998;2023-11-18T15:26:57;9.40;99.90
26103;DHT22;69760;49.380;8.998;2023-11-18T15:29:25;9.30;99.90
26103;DHT22;69760;49.380;8.998;2023-11-18T15:31:58;9.30;99.90
26103;DHT22;69760;49.380;8.998;2023-11-18T15:34:24;9.30;99.90
26103;DHT22;69760;49.380;8.998;2023-11-18T15:36:50;9.30;99.90
26103;DHT22;69760;49.380;8.998;2023-11-18T15:39:17;9.30;99.90
26103;DHT22;69760;49.380;8.998;2023-11-18T15:41:44;9.30;99.90
26103;DHT22;69760;49.380;8.998;2023-11-18T15:44:09;9.40;99.90
26103;DHT22;69760;49.380;8.998;2023-11-18T15:46:38;9.40;99.90
26103;DHT22;69760;49.380;8.998;2023-11-18T15:49:04;9.40;99.90
26103;DHT22;69760;49.380;8.998;2023-11-18T15:51:29;9.40;99.90
26103;DHT22;69760;49.380;8.998;2023-11-18T15:53:56;9.30;99.90
26103;DHT22;69760;49.380;8.998;2023-11-18T15:56:21;9.30;99.90
26103;DHT22;69760;49.380;8.998;2023-11-18T15:58:48;9.20;99.90
26103;DHT22;69760;49.380;8.998;2023-11-18T16:01:14;9.20;99.90
26103;DHT22;69760;49.380;8.998;2023-11-18T16:03:39;9.20;99.90
26103;DHT22;69760;49.380;8.998;2023-11-18T16:06:05;9.20;99.90
26103;DHT22;69760;49.380;8.998;2023-11-18T16:08:31;9.20;99.90
26103;DHT22;69760;49.380;8.998;2023-11-18T16:10:57;9.10;99.90
26103;DHT22;69760;49.380;8.998;2023-11-18T16:13:22;9.00;99.90
26103;DHT22;69760;49.380;8.998;2023-11-18T16:15:48;9.00;99.90
26103;DHT22;69760;49.380;8.998;2023-11-18T16:18:13;9.00;99.90
26103;DHT22;69760;49.380;8.998;2023-11-18T16:20:39;8.90;99.90